Time;durP1;ratioP1;P1;durP2;ratioP2;P2;SDS_P1;SDS_P2;PMS_P1;PMS_P2;Temp;Humidity;BMP_temperature;BMP_pressure;BME280_temperature;BME280_humidity;BME280_pressure;Samples;Min_cycle;Max_cycle;Signal;HPM_P1;HPM_P2
2023/01/07 00:02:01;;;;;;;55.83;28.77;;;8.10;99.90;;;;;;5055149;28;20036;-79
2023/01/07 00:04:26;;;;;;;60.88;31.40;;;8.20;99.90;;;;;;5036512;28;20362;-81
2023/01/07 00:06:53;;;;;;;62.72;30.85;;;8.70;99.90;;;;;;5020706;28;20032;-83
2023/01/07 00:09:18;;;;;;;63.10;32.42;;;8.30;99.90;;;;;;5041042;28;20057;-81
2023/01/07 00:11:45;;;;;;;64.30;31.52;;;8.80;99.90;;;;;;5026365;28;20033;-80
2023/01/07 00:14:12;;;;;;;73.25;33.40;;;8.30;99.90;;;;;;5046031;28;20041;-81
2023/01/07 00:16:38;;;;;;;75.50;35.58;;;8.90;99.90;;;;;;5036548;28;20535;-82
2023/01/07 00:19:06;;;;;;;74.15;35.03;;;8.50;99.90;;;;;;5016217;28;20100;-80
2023/01/07 00:21:32;;;;;;;73.28;35.85;;;8.80;99.90;;;;;;5066238;28;20041;-81
2023/01/07 00:24:01;;;;;;;74.53;37.13;;;8.60;99.90;;;;;;5033988;28;20041;-82
2023/01/07 00:26:33;;;;;;;70.80;34.60;;;9.10;99.90;;;;;;5043001;28;20150;-83
2023/01/07 00:28:59;;;;;;;67.15;33.72;;;8.90;99.90;;;;;;5057343;28;20044;-80
2023/01/07 00:31:30;;;;;;;74.68;36.17;;;9.00;99.90;;;;;;5028574;28;20047;-80
2023/01/07 00:36:30;;;;;;;73.25;34.78;;;8.70;99.90;;;;;;5036399;28;20086;-82
2023/01/07 00:38:58;;;;;;;72.35;35.00;;;8.80;99.90;;;;;;5036840;28;20033;-82
2023/01/07 00:41:23;;;;;;;92.68;43.30;;;9.30;99.90;;;;;;5039335;28;20048;-82
2023/01/07 00:43:49;;;;;;;76.95;36.30;;;9.20;99.90;;;;;;5032517;28;20040;-80
2023/01/07 00:46:15;;;;;;;67.28;33.47;;;9.20;99.90;;;;;;5035197;28;20468;-81
2023/01/07 00:48:41;;;;;;;68.60;33.47;;;9.40;99.90;;;;;;5031664;28;20033;-81
2023/01/07 00:51:11;;;;;;;60.92;32.10;;;9.40;99.90;;;;;;5028246;28;20025;-81
2023/01/07 00:53:37;;;;;;;65.57;32.30;;;9.00;99.90;;;;;;5045538;28;20402;-81
2023/01/07 00:59:44;;;;;;;70.88;31.70;;;9.50;99.90;;;;;;5047741;28;20038;-81
2023/01/07 01:02:10;;;;;;;64.47;31.25;;;9.60;99.90;;;;;;5015966;28;20033;-80
2023/01/07 01:04:35;;;;;;;63.25;31.23;;;9.50;99.90;;;;;;5032592;28;20041;-80
2023/01/07 01:07:01;;;;;;;59.90;29.75;;;9.20;99.90;;;;;;5031462;28;20041;-78
2023/01/07 01:09:27;;;;;;;62.55;29.75;;;9.20;99.90;;;;;;5041616;28;20393;-82
2023/01/07 01:11:52;;;;;;;65.13;31.08;;;9.30;99.90;;;;;;5017126;28;20424;-81
2023/01/07 01:14:18;;;;;;;55.45;28.15;;;9.70;99.90;;;;;;5048854;28;20048;-80
2023/01/07 01:16:44;;;;;;;55.75;28.50;;;9.70;99.90;;;;;;5013509;28;20140;-79
2023/01/07 01:19:09;;;;;;;56.67;27.70;;;9.70;99.90;;;;;;5030644;28;20071;-80
2023/01/07 01:21:38;;;;;;;55.38;27.02;;;9.60;99.90;;;;;;5027852;28;20049;-77
2023/01/07 01:24:05;;;;;;;51.10;26.67;;;9.70;99.90;;;;;;5017350;28;20466;-83
2023/01/07 01:26:31;;;;;;;58.35;28.33;;;9.70;99.90;;;;;;5032989;28;20039;-81
2023/01/07 01:28:56;;;;;;;54.80;27.60;;;9.50;99.90;;;;;;5038886;28;20072;-80
2023/01/07 01:31:22;;;;;;;54.53;28.50;;;9.90;99.90;;;;;;5039649;28;20040;-79
2023/01/07 01:33:48;;;;;;;57.85;27.67;;;9.60;99.90;;;;;;5017094;28;20051;-80
2023/01/07 01:36:14;;;;;;;51.78;28.23;;;9.60;99.90;;;;;;4997694;28;20064;-81
2023/01/07 01:38:40;;;;;;;52.67;27.63;;;10.00;99.90;;;;;;5019323;28;20168;-81
2023/01/07 01:41:06;;;;;;;52.28;27.50;;;9.70;99.90;;;;;;5046277;28;20045;-83
2023/01/07 01:43:35;;;;;;;52.97;27.48;;;9.70;99.90;;;;;;5029497;28;20043;-81
2023/01/07 01:46:28;;;;;;;51.58;26.98;;;9.60;99.90;;;;;;5015242;28;20119;-83
2023/01/07 01:49:11;;;;;;;54.60;27.17;;;10.10;99.90;;;;;;5030704;28;20395;-82
2023/01/07 01:51:41;;;;;;;48.00;26.52;;;10.10;99.90;;;;;;5044842;28;20053;-81
2023/01/07 01:54:27;;;;;;;53.75;27.17;;;9.80;99.90;;;;;;5000746;28;20048;-84
2023/01/07 01:56:54;;;;;;;45.72;26.17;;;10.10;99.90;;;;;;5046370;28;20045;-81
2023/01/07 01:59:25;;;;;;;51.45;27.92;;;10.20;99.90;;;;;;5031342;28;20445;-81
2023/01/07 02:01:52;;;;;;;52.78;27.85;;;10.20;99.90;;;;;;5021597;28;20063;-79
2023/01/07 02:04:21;;;;;;;51.45;27.55;;;10.30;99.90;;;;;;5000388;28;20052;-80
2023/01/07 02:06:54;;;;;;;50.50;27.17;;;9.90;99.90;;;;;;5018987;28;20043;-83
2023/01/07 02:09:20;;;;;;;44.30;26.13;;;10.10;99.90;;;;;;5040477;28;20329;-79
2023/01/07 02:12:11;;;;;;;44.70;26.73;;;9.80;99.90;;;;;;5050577;28;20157;-79
2023/01/07 02:14:40;;;;;;;44.88;26.98;;;10.00;99.90;;;;;;5053134;28;20049;-79
2023/01/07 02:17:34;;;;;;;41.63;25.85;;;9.80;99.90;;;;;;5018529;28;20040;-78
2023/01/07 02:20:00;;;;;;;47.05;26.40;;;9.90;99.90;;;;;;5033937;28;20040;-84
2023/01/07 02:22:48;;;;;;;44.38;26.88;;;10.30;99.90;;;;;;5017648;28;20041;-81
2023/01/07 02:25:48;;;;;;;46.72;27.80;;;9.80;99.90;;;;;;5017461;28;20053;-83
2023/01/07 02:28:35;;;;;;;47.92;28.45;;;10.20;99.90;;;;;;5036362;28;20057;-80
2023/01/07 02:31:27;;;;;;;46.67;28.17;;;10.30;99.90;;;;;;5020007;28;20060;-80
2023/01/07 02:34:25;;;;;;;49.65;29.88;;;10.00;99.90;;;;;;5048291;28;20496;-80
2023/01/07 02:37:32;;;;;;;52.72;29.33;;;10.00;99.90;;;;;;4934306;28;20047;-82
2023/01/07 02:40:16;;;;;;;43.13;28.08;;;10.30;99.90;;;;;;4912014;29;20432;-80
2023/01/07 02:43:24;;;;;;;50.43;29.20;;;10.00;99.90;;;;;;4900567;29;20103;-80
2023/01/07 02:46:00;;;;;;;45.38;28.33;;;10.40;99.90;;;;;;4911419;29;20304;-81
2023/01/07 02:48:26;;;;;;;47.55;28.02;;;10.30;99.90;;;;;;4926919;29;20119;-82
2023/01/07 02:50:52;;;;;;;43.97;28.58;;;10.10;99.90;;;;;;4925469;29;20052;-79
2023/01/07 02:53:20;;;;;;;43.83;28.48;;;10.00;99.90;;;;;;4896076;29;20040;-82
2023/01/07 02:56:04;;;;;;;34.40;24.88;;;10.00;99.90;;;;;;4912856;29;20125;-79
2023/01/07 02:59:23;;;;;;;40.97;29.10;;;10.20;99.90;;;;;;4929558;29;20059;-82
2023/01/07 03:02:13;;;;;;;39.78;27.02;;;10.00;99.90;;;;;;4881260;29;20337;-80
2023/01/07 03:04:50;;;;;;;39.83;27.27;;;10.40;99.90;;;;;;4892390;29;20055;-80
2023/01/07 03:07:57;;;;;;;36.83;26.73;;;10.00;99.90;;;;;;4902132;29;20052;-80
2023/01/07 03:10:34;;;;;;;38.38;27.27;;;10.50;99.90;;;;;;4856369;29;20084;-81
2023/01/07 03:13:12;;;;;;;37.50;26.27;;;10.10;99.90;;;;;;4871698;29;20168;-83
2023/01/07 03:15:44;;;;;;;40.33;28.05;;;10.00;99.90;;;;;;4916784;29;20059;-82
2023/01/07 03:18:17;;;;;;;41.08;28.38;;;10.00;99.90;;;;;;4904492;29;20524;-80
2023/01/07 03:20:48;;;;;;;38.47;28.70;;;10.30;99.90;;;;;;4893830;29;20063;-80
2023/01/07 03:23:20;;;;;;;42.20;29.73;;;10.00;99.90;;;;;;4914404;29;20140;-83
2023/01/07 03:25:49;;;;;;;39.15;27.88;;;10.50;99.90;;;;;;4913784;29;20051;-81
2023/01/07 03:28:20;;;;;;;42.15;29.15;;;10.10;99.90;;;;;;4907303;29;20060;-79
2023/01/07 03:30:48;;;;;;;40.78;28.95;;;10.20;99.90;;;;;;4904126;29;20051;-81
2023/01/07 03:33:22;;;;;;;36.75;27.45;;;10.00;99.90;;;;;;4902529;28;20055;-80
2023/01/07 03:35:50;;;;;;;39.20;29.00;;;10.40;99.90;;;;;;4964801;28;20043;-79
2023/01/07 03:38:19;;;;;;;36.88;28.23;;;10.00;99.90;;;;;;4957929;28;20047;-81
2023/01/07 03:40:46;;;;;;;38.60;28.70;;;10.50;99.90;;;;;;4935100;28;20074;-80
2023/01/07 03:43:14;;;;;;;38.70;28.23;;;10.50;99.90;;;;;;4971529;28;20383;-80
2023/01/07 03:45:40;;;;;;;38.28;27.55;;;10.20;99.90;;;;;;4949003;28;20484;-84
2023/01/07 03:48:06;;;;;;;34.15;25.90;;;10.10;99.90;;;;;;5034028;28;20044;-80
2023/01/07 03:50:33;;;;;;;34.45;26.60;;;10.20;99.90;;;;;;5018619;28;20098;-83
2023/01/07 03:52:59;;;;;;;39.58;27.27;;;10.40;99.90;;;;;;5024606;28;20033;-81
2023/01/07 03:55:44;;;;;;;33.65;26.77;;;10.60;99.90;;;;;;5056865;28;20064;-79
2023/01/07 03:58:10;;;;;;;31.95;25.67;;;10.00;99.90;;;;;;5025216;28;20072;-81
2023/01/07 04:00:36;;;;;;;26.92;22.10;;;10.20;99.90;;;;;;5030296;28;20034;-83
2023/01/07 04:03:01;;;;;;;27.55;23.60;;;10.40;99.90;;;;;;5003426;28;20034;-79
2023/01/07 04:05:27;;;;;;;29.88;24.75;;;10.50;99.90;;;;;;5042902;28;20515;-81
2023/01/07 04:07:53;;;;;;;28.27;23.63;;;10.50;99.90;;;;;;5029523;28;20045;-80
2023/01/07 04:10:19;;;;;;;28.67;23.45;;;10.70;99.90;;;;;;5009801;28;20064;-81
2023/01/07 04:12:45;;;;;;;32.42;24.58;;;10.60;99.90;;;;;;5011280;28;20164;-81
2023/01/07 04:15:10;;;;;;;29.27;23.58;;;10.50;99.90;;;;;;5037111;28;20053;-80
2023/01/07 04:17:36;;;;;;;36.88;23.27;;;10.50;99.90;;;;;;5041616;28;20349;-80
2023/01/07 04:20:02;;;;;;;25.48;22.02;;;10.10;99.90;;;;;;5053895;28;20109;-81
2023/01/07 04:22:28;;;;;;;28.65;21.27;;;10.20;99.90;;;;;;5068307;28;20040;-82
2023/01/07 04:24:54;;;;;;;24.48;21.02;;;10.60;99.90;;;;;;5036063;28;20040;-81
2023/01/07 04:27:19;;;;;;;28.65;20.40;;;10.50;99.90;;;;;;5053412;28;20029;-80
2023/01/07 04:29:45;;;;;;;25.27;21.00;;;10.70;99.90;;;;;;5034020;28;20040;-82
2023/01/07 04:32:11;;;;;;;27.33;21.45;;;10.10;99.90;;;;;;5055645;28;20078;-84
2023/01/07 04:34:36;;;;;;;26.88;21.38;;;10.70;99.90;;;;;;5036503;28;20342;-82
2023/01/07 04:37:02;;;;;;;30.27;21.75;;;10.20;99.90;;;;;;5038859;28;20049;-78
2023/01/07 04:39:27;;;;;;;27.98;22.33;;;10.50;99.90;;;;;;5065244;28;20037;-81
2023/01/07 04:41:53;;;;;;;30.75;21.77;;;10.30;99.90;;;;;;5024247;28;20076;-83
2023/01/07 04:44:19;;;;;;;27.08;21.42;;;10.60;99.90;;;;;;5029653;28;20053;-82
2023/01/07 04:46:45;;;;;;;36.17;23.40;;;10.40;99.90;;;;;;5018201;28;20125;-83
2023/01/07 04:49:11;;;;;;;31.13;22.85;;;10.50;99.90;;;;;;5069414;28;20067;-81
2023/01/07 04:51:36;;;;;;;30.52;21.85;;;10.10;99.90;;;;;;5066972;28;20033;-84
2023/01/07 04:54:02;;;;;;;31.77;23.23;;;10.60;99.90;;;;;;5054791;28;20052;-82
2023/01/07 04:56:28;;;;;;;28.58;21.80;;;10.10;99.90;;;;;;5021156;28;20389;-79
2023/01/07 04:58:53;;;;;;;30.30;22.13;;;10.10;99.90;;;;;;5041476;28;20060;-81
2023/01/07 05:01:20;;;;;;;29.27;21.80;;;10.40;99.90;;;;;;5053128;28;20048;-83
2023/01/07 05:03:46;;;;;;;27.38;20.50;;;10.40;99.90;;;;;;5028263;28;20051;-81
2023/01/07 05:06:11;;;;;;;28.80;21.45;;;10.60;99.90;;;;;;5034820;28;20050;-80
2023/01/07 05:08:37;;;;;;;29.77;21.50;;;10.60;99.90;;;;;;5045039;28;20112;-81
2023/01/07 05:11:04;;;;;;;25.42;20.33;;;10.30;99.90;;;;;;5016496;28;20047;-78
2023/01/07 05:13:34;;;;;;;25.35;19.38;;;10.50;99.90;;;;;;5034416;28;20069;-80
2023/01/07 05:16:00;;;;;;;30.45;20.42;;;10.50;99.90;;;;;;5045261;28;20045;-80
2023/01/07 05:18:25;;;;;;;24.63;20.27;;;10.00;99.90;;;;;;5032291;28;20083;-83
2023/01/07 05:20:51;;;;;;;28.08;20.70;;;10.20;99.90;;;;;;5045544;28;20052;-81
2023/01/07 05:23:17;;;;;;;29.45;19.27;;;10.00;99.90;;;;;;5013820;28;20072;-80
2023/01/07 05:25:42;;;;;;;32.15;20.25;;;9.90;99.90;;;;;;5012812;28;20144;-78
2023/01/07 05:28:09;;;;;;;27.17;19.58;;;10.00;99.90;;;;;;5016835;28;20033;-83
2023/01/07 05:30:34;;;;;;;24.85;17.65;;;10.40;99.90;;;;;;5029206;28;20048;-83
2023/01/07 05:33:00;;;;;;;26.80;19.27;;;10.00;99.90;;;;;;5032482;28;20032;-80
2023/01/07 05:35:26;;;;;;;25.17;19.17;;;10.30;99.90;;;;;;5026624;28;20381;-79
2023/01/07 05:37:51;;;;;;;23.73;17.77;;;9.90;99.90;;;;;;5030956;28;20179;-81
2023/01/07 05:40:35;;;;;;;25.08;17.65;;;10.10;99.90;;;;;;5015797;28;20079;-80
2023/01/07 05:43:01;;;;;;;25.92;17.10;;;10.40;99.90;;;;;;5027864;28;20127;-80
2023/01/07 05:45:27;;;;;;;24.13;18.13;;;10.20;99.90;;;;;;5029667;28;20101;-83
2023/01/07 05:47:52;;;;;;;24.52;17.90;;;10.00;99.90;;;;;;5019573;28;20053;-82
2023/01/07 05:50:18;;;;;;;21.45;14.88;;;10.30;99.90;;;;;;5030769;28;20472;-78
2023/01/07 05:52:44;;;;;;;22.90;16.30;;;10.00;99.90;;;;;;5032736;28;20056;-79
2023/01/07 05:55:29;;;;;;;21.23;15.75;;;10.00;99.90;;;;;;5015124;28;20037;-82
2023/01/07 05:57:54;;;;;;;25.40;16.02;;;10.10;99.90;;;;;;5042958;28;20037;-81
2023/01/07 06:00:20;;;;;;;22.67;15.88;;;10.00;99.90;;;;;;5033330;28;20045;-80
2023/01/07 06:02:46;;;;;;;22.08;15.82;;;10.00;99.90;;;;;;5033810;28;20037;-82
2023/01/07 06:05:12;;;;;;;22.88;14.73;;;10.40;99.90;;;;;;5018553;28;20057;-82
2023/01/07 06:07:37;;;;;;;21.52;14.82;;;10.20;99.90;;;;;;5019210;28;20047;-81
2023/01/07 06:10:34;;;;;;;19.83;14.77;;;10.10;99.90;;;;;;5052623;28;20064;-80
2023/01/07 06:13:03;;;;;;;21.45;14.43;;;10.10;99.90;;;;;;5068041;28;20053;-79
2023/01/07 06:15:46;;;;;;;19.10;14.15;;;9.90;99.90;;;;;;5046063;28;20044;-80
2023/01/07 06:18:11;;;;;;;17.60;13.90;;;10.50;99.90;;;;;;5042783;28;20076;-82
2023/01/07 06:20:40;;;;;;;19.85;13.20;;;9.90;99.90;;;;;;5060005;28;20059;-82
2023/01/07 06:23:06;;;;;;;22.48;13.90;;;10.40;99.90;;;;;;5042250;28;20041;-79
2023/01/07 06:29:13;;;;;;;20.15;13.65;;;10.30;99.90;;;;;;5066980;28;20039;-80
2023/01/07 06:31:38;;;;;;;17.88;11.65;;;9.90;99.90;;;;;;5035105;28;20041;-81
2023/01/07 06:34:04;;;;;;;19.83;10.98;;;9.90;99.90;;;;;;5015244;28;20576;-82
2023/01/07 06:36:30;;;;;;;20.65;12.45;;;10.30;99.90;;;;;;5030389;28;20411;-81
2023/01/07 06:38:55;;;;;;;18.98;12.43;;;10.40;99.90;;;;;;5031935;28;20083;-81
2023/01/07 06:41:21;;;;;;;17.52;12.13;;;10.20;99.90;;;;;;5015052;28;20469;-81
2023/01/07 06:43:47;;;;;;;17.30;11.82;;;10.20;99.90;;;;;;5039082;28;20144;-83
2023/01/07 06:46:12;;;;;;;19.08;12.00;;;9.80;99.90;;;;;;5024997;28;20790;-81
2023/01/07 06:48:38;;;;;;;18.40;12.30;;;9.80;99.90;;;;;;5021692;28;20037;-80
2023/01/07 06:51:04;;;;;;;18.10;12.30;;;9.80;99.90;;;;;;5018368;28;20094;-81
2023/01/07 06:53:30;;;;;;;18.65;11.80;;;10.20;99.90;;;;;;5009589;28;20069;-81
2023/01/07 06:59:21;;;;;;;18.67;11.40;;;9.90;99.90;;;;;;5033317;28;20048;-81
2023/01/07 07:01:46;;;;;;;15.30;11.45;;;9.70;99.90;;;;;;5067029;28;20029;-80
2023/01/07 07:04:12;;;;;;;17.80;11.45;;;10.30;99.90;;;;;;5021570;28;20082;-80
2023/01/07 07:06:37;;;;;;;16.42;11.10;;;9.70;99.90;;;;;;5034172;28;20083;-81
2023/01/07 07:09:03;;;;;;;16.15;10.95;;;9.90;99.90;;;;;;5013199;28;20106;-82
2023/01/07 07:11:29;;;;;;;19.58;11.10;;;10.30;99.90;;;;;;5055579;28;20208;-82
2023/01/07 07:13:55;;;;;;;16.63;10.60;;;10.30;99.90;;;;;;5054382;28;20049;-80
2023/01/07 07:16:23;;;;;;;16.08;10.48;;;9.80;99.90;;;;;;5021592;28;20074;-79
2023/01/07 07:18:49;;;;;;;18.05;10.93;;;9.90;99.90;;;;;;5036270;28;20508;-79
2023/01/07 07:21:15;;;;;;;17.85;10.88;;;9.90;99.90;;;;;;5052385;28;20055;-82
2023/01/07 07:23:40;;;;;;;17.08;10.50;;;9.80;99.90;;;;;;5036004;28;20091;-82
2023/01/07 07:26:06;;;;;;;14.98;9.98;;;9.80;99.90;;;;;;5034544;28;20106;-77
2023/01/07 07:28:33;;;;;;;18.83;10.23;;;9.80;99.90;;;;;;5029125;28;20041;-81
2023/01/07 07:30:59;;;;;;;18.63;10.52;;;10.00;99.90;;;;;;5031938;28;20040;-78
2023/01/07 07:33:24;;;;;;;14.77;10.05;;;9.80;99.90;;;;;;5030078;28;20042;-79
2023/01/07 07:35:50;;;;;;;19.73;10.50;;;10.10;99.90;;;;;;5032302;28;20048;-77
2023/01/07 07:38:17;;;;;;;15.55;9.88;;;9.80;99.90;;;;;;5018509;28;20067;-79
2023/01/07 07:40:43;;;;;;;15.23;9.82;;;9.80;99.90;;;;;;5043857;28;20052;-81
2023/01/07 07:43:09;;;;;;;13.68;9.52;;;10.20;99.90;;;;;;5066562;28;20063;-78
2023/01/07 07:45:35;;;;;;;15.68;10.30;;;10.20;99.90;;;;;;5028215;28;20040;-78
2023/01/07 07:48:00;;;;;;;13.50;10.20;;;9.80;99.90;;;;;;5066917;28;20134;-78
2023/01/07 07:50:26;;;;;;;14.88;9.68;;;10.10;99.90;;;;;;5038038;28;20041;-79
2023/01/07 07:52:53;;;;;;;16.80;10.07;;;9.70;99.90;;;;;;5046752;28;20044;-79
2023/01/07 07:55:19;;;;;;;18.58;10.13;;;9.80;99.90;;;;;;5029622;28;20045;-78
2023/01/07 07:57:44;;;;;;;14.10;9.48;;;9.80;99.90;;;;;;5047811;28;20480;-79
2023/01/07 08:00:11;;;;;;;17.25;9.60;;;9.90;99.90;;;;;;5063678;28;20429;-80
2023/01/07 08:02:36;;;;;;;14.18;9.50;;;10.20;99.90;;;;;;5017739;28;20477;-78
2023/01/07 08:05:02;;;;;;;13.50;9.18;;;10.00;99.90;;;;;;5064203;28;20080;-82
2023/01/07 08:07:28;;;;;;;13.68;8.90;;;9.80;99.90;;;;;;5025691;28;20037;-78
2023/01/07 08:09:54;;;;;;;12.13;9.00;;;10.00;99.90;;;;;;5045966;28;20072;-77
2023/01/07 08:12:19;;;;;;;12.38;8.18;;;10.00;99.90;;;;;;5057647;28;20057;-78
2023/01/07 08:14:45;;;;;;;12.57;8.55;;;9.60;99.90;;;;;;5047690;28;20048;-80
2023/01/07 08:17:11;;;;;;;16.60;8.32;;;9.90;99.90;;;;;;5044701;28;20049;-80
2023/01/07 08:19:36;;;;;;;12.25;7.85;;;9.60;99.90;;;;;;5028233;28;20060;-78
2023/01/07 08:22:02;;;;;;;10.35;7.70;;;9.50;99.90;;;;;;5029523;28;20452;-79
2023/01/07 08:24:28;;;;;;;12.32;7.53;;;9.60;99.90;;;;;;5036724;28;20114;-76
2023/01/07 08:30:35;;;;;;;13.27;7.20;;;9.90;99.90;;;;;;5056266;28;20043;-78
2023/01/07 08:33:06;;;;;;;14.15;7.28;;;9.40;99.90;;;;;;5054732;28;20187;-78
2023/01/07 08:35:32;;;;;;;10.52;6.68;;;9.50;99.90;;;;;;5032678;28;20041;-77
2023/01/07 08:38:07;;;;;;;10.35;7.05;;;9.80;99.90;;;;;;5058420;28;20056;-80
2023/01/07 08:40:36;;;;;;;11.98;6.95;;;9.90;99.90;;;;;;5053062;28;20121;-77
2023/01/07 08:43:04;;;;;;;10.18;6.47;;;9.90;99.90;;;;;;5030125;28;20121;-80
2023/01/07 08:45:30;;;;;;;9.82;6.85;;;9.70;99.90;;;;;;5027494;28;20666;-81
2023/01/07 08:47:59;;;;;;;12.38;6.82;;;9.90;99.90;;;;;;5042254;28;20270;-80
2023/01/07 08:50:26;;;;;;;13.27;6.22;;;10.00;99.90;;;;;;5042194;28;20041;-82
2023/01/07 08:52:52;;;;;;;9.05;6.15;;;9.60;99.90;;;;;;5011603;28;20155;-81
2023/01/07 08:55:18;;;;;;;10.88;6.03;;;9.80;99.90;;;;;;5026236;28;20127;-81
2023/01/07 08:57:43;;;;;;;11.50;5.68;;;9.70;99.90;;;;;;5009109;28;20061;-77
2023/01/07 09:00:10;;;;;;;10.80;6.15;;;9.80;99.90;;;;;;5039621;28;20063;-79
2023/01/07 09:02:36;;;;;;;10.15;5.30;;;9.60;99.90;;;;;;5009676;28;20048;-79
2023/01/07 09:05:05;;;;;;;11.27;5.70;;;10.00;99.90;;;;;;4993399;28;20571;-84
2023/01/07 09:07:31;;;;;;;11.35;5.70;;;9.90;99.90;;;;;;5011208;28;20163;-83
2023/01/07 09:09:57;;;;;;;9.55;5.30;;;10.00;99.90;;;;;;5044065;28;20137;-79
2023/01/07 09:12:22;;;;;;;9.40;5.20;;;10.10;99.90;;;;;;5016571;28;20056;-78
2023/01/07 09:14:48;;;;;;;10.90;5.28;;;9.60;99.90;;;;;;5051503;28;20063;-79
2023/01/07 09:17:14;;;;;;;7.25;4.90;;;9.60;99.90;;;;;;5018039;28;20056;-78
2023/01/07 09:19:40;;;;;;;10.63;5.22;;;9.60;99.90;;;;;;5013814;28;20048;-82
2023/01/07 09:22:05;;;;;;;7.20;4.53;;;10.00;99.90;;;;;;5010165;28;20049;-80
2023/01/07 09:24:34;;;;;;;7.82;4.97;;;10.00;99.90;;;;;;5014205;28;20099;-82
2023/01/07 09:26:59;;;;;;;7.75;4.90;;;9.60;99.90;;;;;;5048048;28;20049;-79
2023/01/07 09:29:25;;;;;;;11.38;5.00;;;9.70;99.90;;;;;;5015449;28;20048;-77
2023/01/07 09:31:50;;;;;;;6.25;4.88;;;9.90;99.90;;;;;;5014880;28;20365;-77
2023/01/07 09:34:16;;;;;;;8.65;4.45;;;10.00;99.90;;;;;;5010422;28;20468;-78
2023/01/07 09:36:42;;;;;;;7.30;4.53;;;9.60;99.90;;;;;;5058005;28;21051;-77
2023/01/07 09:39:10;;;;;;;7.38;4.75;;;9.60;99.90;;;;;;5025255;28;20033;-78
2023/01/07 09:41:39;;;;;;;8.07;4.82;;;9.60;99.90;;;;;;5007339;28;20045;-78
2023/01/07 09:44:40;;;;;;;9.52;5.15;;;9.80;99.90;;;;;;5014611;28;20067;-79
2023/01/07 09:47:08;;;;;;;6.43;4.47;;;10.00;99.90;;;;;;5013821;28;20073;-79
2023/01/07 09:49:34;;;;;;;11.20;5.22;;;10.00;99.90;;;;;;5000117;28;20497;-80
2023/01/07 09:52:21;;;;;;;7.47;4.50;;;10.00;99.90;;;;;;5005365;28;20060;-79
2023/01/07 09:54:55;;;;;;;8.75;4.43;;;9.60;99.90;;;;;;5029682;28;20092;-79
2023/01/07 09:57:21;;;;;;;7.13;4.32;;;10.00;99.90;;;;;;5003049;28;20145;-80
2023/01/07 09:59:46;;;;;;;8.15;4.50;;;10.00;99.90;;;;;;5009580;28;20141;-78
2023/01/07 10:02:40;;;;;;;7.50;4.50;;;9.70;99.90;;;;;;4991002;28;20096;-80
2023/01/07 10:05:28;;;;;;;8.10;4.35;;;9.90;99.90;;;;;;5010464;28;20111;-80
2023/01/07 10:08:29;;;;;;;8.75;4.18;;;10.00;99.90;;;;;;5006613;28;20049;-78
2023/01/07 10:11:24;;;;;;;8.25;4.05;;;9.70;99.90;;;;;;4997502;28;20053;-79
2023/01/07 10:14:29;;;;;;;5.00;3.72;;;9.80;99.90;;;;;;5011479;28;20054;-79
2023/01/07 10:17:28;;;;;;;11.02;3.97;;;9.70;99.90;;;;;;5008463;28;20049;-80
2023/01/07 10:20:11;;;;;;;7.25;4.00;;;10.00;99.90;;;;;;5016265;28;20190;-81
2023/01/07 10:22:44;;;;;;;3.80;3.30;;;10.10;99.90;;;;;;5009090;28;20037;-80
2023/01/07 10:25:19;;;;;;;4.85;3.40;;;9.80;99.90;;;;;;5059676;28;20131;-81
2023/01/07 10:27:46;;;;;;;5.63;3.70;;;10.00;99.90;;;;;;5037757;28;20056;-81
2023/01/07 10:30:23;;;;;;;4.45;3.40;;;10.10;99.90;;;;;;5070409;28;20049;-81
2023/01/07 10:32:57;;;;;;;5.70;3.30;;;10.00;99.90;;;;;;5049922;28;20109;-81
2023/01/07 10:35:26;;;;;;;4.40;3.53;;;10.00;99.90;;;;;;5044304;28;20064;-81
2023/01/07 10:37:56;;;;;;;6.78;3.70;;;10.20;99.90;;;;;;5047421;28;20131;-78
2023/01/07 10:40:25;;;;;;;6.20;3.28;;;10.30;99.90;;;;;;5021305;28;20064;-78
2023/01/07 10:47:06;;;;;;;3.65;2.95;;;10.20;99.90;;;;;;5054755;28;20056;-78
2023/01/07 10:49:44;;;;;;;3.33;2.55;;;10.10;99.90;;;;;;5046366;28;20048;-82
2023/01/07 10:52:44;;;;;;;6.72;2.97;;;10.20;99.90;;;;;;5033780;28;20048;-81
2023/01/07 10:55:29;;;;;;;4.63;2.92;;;10.20;99.90;;;;;;5074543;28;20097;-80
2023/01/07 10:57:55;;;;;;;4.13;2.80;;;10.30;99.90;;;;;;5021508;28;20411;-78
2023/01/07 11:00:23;;;;;;;5.43;2.80;;;10.40;99.90;;;;;;5033217;28;20037;-82
2023/01/07 11:02:57;;;;;;;4.63;2.78;;;10.40;99.90;;;;;;5018746;28;20510;-80
2023/01/07 11:05:27;;;;;;;;;;;10.60;99.90;;;;;;5020247;28;20145;-77
2023/01/07 11:07:56;;;;;;;4.95;2.42;;;10.50;99.90;;;;;;5054505;28;20217;-79
2023/01/07 11:10:26;;;;;;;4.53;2.42;;;10.70;99.90;;;;;;5064591;28;20087;-79
2023/01/07 11:12:59;;;;;;;4.13;2.65;;;10.60;99.90;;;;;;4999698;28;20135;-77
2023/01/07 11:15:39;;;;;;;4.80;2.88;;;10.80;99.90;;;;;;5017565;28;20048;-83
2023/01/07 11:18:16;;;;;;;3.22;2.30;;;10.70;99.90;;;;;;5016830;28;20478;-80
2023/01/07 11:20:53;;;;;;;2.95;2.33;;;10.70;99.90;;;;;;5056049;28;20056;-80
2023/01/07 11:23:28;;;;;;;5.72;2.50;;;10.70;99.90;;;;;;5038075;28;20102;-84
2023/01/07 11:26:04;;;;;;;3.70;2.30;;;10.80;99.90;;;;;;5051505;28;20124;-80
2023/01/07 11:28:53;;;;;;;5.57;2.15;;;11.00;99.90;;;;;;5034454;28;20045;-77
2023/01/07 11:31:22;;;;;;;3.90;2.17;;;11.00;99.90;;;;;;5043948;28;20056;-80
2023/01/07 11:33:51;;;;;;;3.08;2.20;;;11.00;99.90;;;;;;5028198;28;20055;-81
2023/01/07 11:36:17;;;;;;;3.10;2.20;;;11.10;99.90;;;;;;5044154;28;20056;-81
2023/01/07 11:38:44;;;;;;;3.60;2.00;;;11.20;99.90;;;;;;5063524;28;20048;-79
2023/01/07 11:41:24;;;;;;;3.30;2.00;;;11.10;99.90;;;;;;5013390;28;20173;-81
2023/01/07 11:43:52;;;;;;;2.45;1.70;;;11.20;99.90;;;;;;5016656;28;20045;-82
2023/01/07 11:46:20;;;;;;;3.42;2.00;;;11.10;99.90;;;;;;5044601;28;20053;-80
2023/01/07 11:48:59;;;;;;;3.95;1.95;;;11.20;99.90;;;;;;5020150;28;20122;-81
2023/01/07 11:51:25;;;;;;;1.92;1.77;;;11.20;99.90;;;;;;5055531;28;20059;-80
2023/01/07 11:53:56;;;;;;;3.97;1.60;;;11.00;99.90;;;;;;5004398;28;20045;-79
2023/01/07 11:57:09;;;;;;;3.55;1.80;;;11.10;99.90;;;;;;5028614;28;20056;-79
2023/01/07 11:59:34;;;;;;;6.75;2.00;;;11.00;99.90;;;;;;5047659;28;20048;-78
2023/01/07 12:02:00;;;;;;;2.22;1.77;;;11.00;99.90;;;;;;5037388;28;20235;-82
2023/01/07 12:04:34;;;;;;;2.00;1.50;;;11.10;99.90;;;;;;5038641;28;20044;-82
2023/01/07 12:07:12;;;;;;;;;;;11.10;99.90;;;;;;5084630;28;20056;-82
2023/01/07 12:09:40;;;;;;;3.40;1.90;;;11.00;99.90;;;;;;5047318;28;20356;-80
2023/01/07 12:12:30;;;;;;;2.78;1.55;;;10.90;99.90;;;;;;5005316;28;20060;-80
2023/01/07 12:15:20;;;;;;;3.22;1.98;;;11.10;99.90;;;;;;5017718;28;20053;-79
2023/01/07 12:18:06;;;;;;;4.55;1.70;;;11.10;99.90;;;;;;5021528;28;20146;-80
2023/01/07 12:20:58;;;;;;;4.47;1.92;;;10.90;99.90;;;;;;5007878;28;20485;-80
2023/01/07 12:23:57;;;;;;;4.03;1.70;;;11.00;99.90;;;;;;5030927;28;20092;-81
2023/01/07 12:26:30;;;;;;;3.05;1.75;;;11.00;99.90;;;;;;5032454;28;20045;-79
2023/01/07 12:28:59;;;;;;;8.00;1.88;;;11.10;99.90;;;;;;5015431;28;20052;-83
2023/01/07 12:31:55;;;;;;;2.25;1.50;;;11.20;99.90;;;;;;5014450;28;20034;-82
2023/01/07 12:34:30;;;;;;;3.95;1.55;;;11.10;99.90;;;;;;5032325;28;20041;-79
2023/01/07 12:37:00;;;;;;;;;;;11.20;99.90;;;;;;5015515;28;20069;-81
2023/01/07 12:39:43;;;;;;;2.80;1.75;;;11.20;99.90;;;;;;5016919;28;19924;-84
2023/01/07 12:42:16;;;;;;;2.63;1.40;;;11.10;99.90;;;;;;5024848;28;20045;-79
2023/01/07 12:44:47;;;;;;;2.40;1.67;;;11.20;99.90;;;;;;5048881;28;20057;-81
2023/01/07 12:47:28;;;;;;;2.42;1.60;;;11.10;99.90;;;;;;4992674;28;20493;-79
2023/01/07 12:50:16;;;;;;;1.77;1.42;;;11.10;99.90;;;;;;4986798;28;20052;-78
2023/01/07 12:52:50;;;;;;;4.82;1.52;;;11.20;99.90;;;;;;5014669;28;20044;-78
2023/01/07 12:55:17;;;;;;;3.95;1.60;;;11.10;99.90;;;;;;4985556;28;20523;-81
2023/01/07 12:57:52;;;;;;;4.72;1.80;;;11.30;99.90;;;;;;5012207;28;20184;-81
2023/01/07 13:00:28;;;;;;;1.60;1.40;;;11.20;99.90;;;;;;5015978;28;20049;-79
2023/01/07 13:03:27;;;;;;;3.58;1.73;;;11.20;99.90;;;;;;5021512;28;20126;-79
2023/01/07 13:06:01;;;;;;;3.28;1.55;;;11.20;99.90;;;;;;5031176;28;20057;-78
2023/01/07 13:08:44;;;;;;;2.35;1.58;;;11.20;99.90;;;;;;5045039;28;20130;-79
2023/01/07 13:14:30;;;;;;;4.80;1.45;;;11.20;99.90;;;;;;5031109;28;20165;-80
2023/01/07 13:17:15;;;;;;;2.72;1.30;;;11.10;99.90;;;;;;5031722;28;20044;-81
2023/01/07 13:19:42;;;;;;;2.33;1.30;;;11.00;99.90;;;;;;5047322;28;20102;-79
2023/01/07 13:22:40;;;;;;;2.17;1.40;;;11.00;99.90;;;;;;5015120;28;20488;-79
2023/01/07 13:25:31;;;;;;;2.45;1.30;;;11.00;99.90;;;;;;4946690;28;20079;-80